Time;durP1;ratioP1;P1;durP2;ratioP2;P2;SDS_P1;SDS_P2;PMS_P1;PMS_P2;Temp;Humidity;BMP_temperature;BMP_pressure;BME280_temperature;BME280_humidity;BME280_pressure;Samples;Min_cycle;Max_cycle;Signal;HPM_P1;HPM_P2
2021/04/23 00:00:48;;;;;;;10.68;5.18;;;;;;;19.30;31.23;72746.88;4930993;29;20023;-92
2021/04/23 00:03:38;;;;;;;13.88;6.85;;;;;;;19.28;30.46;72742.31;4923447;29;20063;-94
2021/04/23 00:06:28;;;;;;;20.95;6.30;;;;;;;19.20;30.60;72729.91;4936321;29;20028;-93
2021/04/23 00:09:04;;;;;;;14.27;5.95;;;;;;;19.11;31.28;72725.31;4947799;29;20027;-93
2021/04/23 00:11:38;;;;;;;12.30;7.18;;;;;;;19.79;31.00;72803.25;4932977;29;20019;-94
2021/04/23 00:14:06;;;;;;;19.80;6.43;;;;;;;19.76;30.71;72796.84;4928891;29;20790;-93
2021/04/23 00:16:33;;;;;;;13.68;6.78;;;;;;;19.80;31.38;72805.03;4930497;29;20070;-92
2021/04/23 00:19:01;;;;;;;19.13;7.82;;;;;;;19.09;31.90;72719.53;4942553;29;20051;-94
2021/04/23 00:21:28;;;;;;;17.45;6.85;;;;;;;19.20;32.22;72734.91;4917181;29;20095;-88
2021/04/23 00:23:56;;;;;;;20.30;8.07;;;;;;;19.18;32.32;72732.53;4938799;29;20119;-85
2021/04/23 00:26:23;;;;;;;17.92;8.52;;;;;;;18.92;33.19;72703.13;4936632;29;20042;-89
2021/04/23 00:28:50;;;;;;;16.13;8.77;;;;;;;19.73;33.08;72796.06;4923833;29;20405;-91
2021/04/23 00:31:17;;;;;;;19.45;9.75;;;;;;;19.30;33.21;72746.31;4938857;29;20007;-88
2021/04/23 00:33:44;;;;;;;18.33;9.68;;;;;;;19.79;34.16;72800.47;4944967;28;20035;-89
2021/04/23 00:36:12;;;;;;;19.20;11.10;;;;;;;19.91;34.26;72817.06;4926687;29;20031;-87
2021/04/23 00:38:40;;;;;;;30.33;10.63;;;;;;;19.01;34.72;72713.31;4941435;29;20035;-87
2021/04/23 00:41:13;;;;;;;17.45;10.07;;;;;;;19.12;34.54;72723.13;4942603;29;20059;-87
2021/04/23 00:43:43;;;;;;;21.23;10.93;;;;;;;20.11;34.69;72840.47;4951870;29;20092;-85
2021/04/23 00:46:11;;;;;;;;;;;;;;;20.13;35.30;72842.84;4931413;29;20103;-85
2021/04/23 00:48:44;;;;;;;24.60;13.27;;;;;;;20.12;35.72;72838.25;4939799;29;19943;-87
2021/04/23 00:51:16;;;;;;;22.38;14.60;;;;;;;19.90;36.50;72815.84;4934006;29;20051;-86
2021/04/23 00:53:47;;;;;;;22.15;12.68;;;;;;;20.06;36.38;72831.66;4937183;29;20055;-87
2021/04/23 00:56:19;;;;;;;27.02;13.07;;;;;;;20.12;35.63;72836.06;4931532;29;20497;-87
2021/04/23 00:58:47;;;;;;;33.15;14.95;;;;;;;20.28;35.55;72854.66;4943950;29;20059;-90
2021/04/23 01:01:27;;;;;;;28.67;12.60;;;;;;;20.36;34.76;72869.84;4933717;29;20031;-87
2021/04/23 01:03:55;;;;;;;26.75;14.60;;;;;;;20.15;34.15;72845.25;4935289;29;20070;-84
2021/04/23 01:06:24;;;;;;;29.17;12.35;;;;;;;20.61;34.77;72898.63;4933080;29;20031;-87
2021/04/23 01:08:53;;;;;;;25.27;11.13;;;;;;;20.27;34.35;72856.25;4926575;29;20060;-86
2021/04/23 01:11:22;;;;;;;18.33;12.80;;;;;;;20.26;34.76;72857.84;4916444;29;20107;-86
2021/04/23 01:13:50;;;;;;;26.15;12.88;;;;;;;20.12;34.30;72838.25;4935601;29;20038;-85
2021/04/23 01:16:21;;;;;;;21.70;13.40;;;;;;;20.72;34.92;72911.25;4933399;29;20031;-84
2021/04/23 01:18:50;;;;;;;30.60;14.88;;;;;;;20.06;35.03;72829.47;4926434;29;20024;-84
2021/04/23 01:21:21;;;;;;;24.73;13.10;;;;;;;21.04;34.11;72945.09;4936469;29;20498;-87
2021/04/23 01:23:49;;;;;;;22.10;11.23;;;;;;;20.04;33.12;72832.06;4922425;29;20039;-85
2021/04/23 01:26:18;;;;;;;18.20;10.88;;;;;;;20.42;33.35;72870.25;4922926;29;20490;-83
2021/04/23 01:28:47;;;;;;;30.20;13.05;;;;;;;20.55;32.98;72891.44;4932354;29;20042;-81
2021/04/23 01:31:17;;;;;;;20.42;11.95;;;;;;;19.96;33.75;72820.88;4942740;29;20517;-84
2021/04/23 01:33:47;;;;;;;18.85;9.98;;;;;;;19.71;33.30;72791.47;4950286;29;20036;-73
2021/04/23 01:36:14;;;;;;;19.58;11.13;;;;;;;19.31;33.55;72747.50;4917012;29;20062;-81
2021/04/23 01:38:44;;;;;;;25.23;10.13;;;;;;;20.24;31.77;72852.66;4935514;29;20114;-81
2021/04/23 01:41:11;;;;;;;22.42;8.38;;;;;;;20.13;30.63;72840.06;4922262;29;20048;-82
2021/04/23 01:43:38;;;;;;;22.52;8.65;;;;;;;20.69;30.98;72902.06;4918547;29;20464;-81
2021/04/23 01:46:07;;;;;;;25.17;9.45;;;;;;;20.59;30.50;72893.44;4934898;29;20107;-82
2021/04/23 01:48:35;;;;;;;18.50;9.38;;;;;;;20.21;30.62;72851.84;4921235;29;20032;-82
2021/04/23 01:51:06;;;;;;;15.68;7.88;;;;;;;20.62;28.50;72894.25;4930067;29;20062;-83
2021/04/23 01:53:33;;;;;;;19.70;7.80;;;;;;;20.56;28.40;72886.47;4935801;29;20035;-82
2021/04/23 01:56:00;;;;;;;13.57;7.10;;;;;;;21.08;28.87;72944.28;4920440;29;20039;-84
2021/04/23 01:58:47;;;;;;;11.73;7.35;;;;;;;21.62;27.43;73012.28;4926164;29;20032;-84
2021/04/23 02:01:14;;;;;;;14.98;7.65;;;;;;;21.08;26.89;72949.88;4869524;29;20048;-84
2021/04/23 02:03:42;;;;;;;14.25;7.13;;;;;;;21.41;27.19;72987.69;4878802;29;20124;-80
2021/04/23 02:06:10;;;;;;;17.35;7.80;;;;;;;21.40;26.99;72983.69;4877492;29;20037;-88
2021/04/23 02:08:37;;;;;;;13.00;7.28;;;;;;;20.77;27.07;72913.84;4860929;29;20035;-83
2021/04/23 02:11:11;;;;;;;19.83;7.88;;;;;;;21.36;26.85;72981.69;4875994;29;20029;-83
2021/04/23 02:13:40;;;;;;;14.50;6.68;;;;;;;21.05;27.57;72946.28;4860573;29;20138;-83
2021/04/23 02:16:12;;;;;;;13.00;5.80;;;;;;;20.76;25.03;72916.06;4857840;29;20028;-77
2021/04/23 02:18:39;;;;;;;11.52;5.28;;;;;;;21.49;24.01;73000.09;4875192;29;20224;-78
2021/04/23 02:21:09;;;;;;;14.25;6.07;;;;;;;21.54;24.41;73002.69;4878296;29;20564;-78
2021/04/23 02:23:36;;;;;;;11.75;6.13;;;;;;;21.32;23.88;72974.69;4875137;29;20037;-78
2021/04/23 02:26:04;;;;;;;18.08;4.82;;;;;;;21.46;23.43;72996.50;4885838;29;20104;-79
2021/04/23 02:28:31;;;;;;;10.88;5.53;;;;;;;21.61;23.18;73011.09;4856488;29;20026;-78
2021/04/23 02:31:06;;;;;;;12.93;5.47;;;;;;;21.58;22.23;73005.28;4870131;29;20146;-79
2021/04/23 02:33:33;;;;;;;11.68;5.80;;;;;;;21.44;22.71;72994.69;4874514;29;20044;-78
2021/04/23 02:36:01;;;;;;;12.85;4.97;;;;;;;21.45;23.50;72995.88;4875421;29;20077;-77
2021/04/23 02:38:29;;;;;;;7.22;4.32;;;;;;;22.00;23.03;73053.94;4897531;29;20581;-83
2021/04/23 02:40:57;;;;;;;10.88;4.65;;;;;;;21.43;22.26;72990.06;4924118;29;20641;-73
2021/04/23 02:43:28;;;;;;;15.27;4.97;;;;;;;21.18;21.72;72964.69;4933396;29;20556;-74
2021/04/23 02:45:56;;;;;;;8.38;4.03;;;;;;;21.68;21.84;73019.53;4934414;29;20024;-74
2021/04/23 02:48:27;;;;;;;9.90;5.13;;;;;;;21.77;22.48;73029.13;4926521;29;20047;-74
2021/04/23 02:50:59;;;;;;;7.15;4.88;;;;;;;22.01;23.07;73060.75;4931898;28;20359;-75
2021/04/23 02:53:25;;;;;;;6.90;5.10;;;;;;;21.78;21.92;73027.53;4929435;29;20035;-74
2021/04/23 02:55:52;;;;;;;4.57;4.13;;;;;;;20.91;22.15;72930.66;4933121;29;20565;-74
2021/04/23 02:58:22;;;;;;;8.63;4.45;;;;;;;21.64;21.63;73014.72;4931154;29;20098;-75
2021/04/23 03:00:53;;;;;;;10.65;4.20;;;;;;;21.62;21.60;73009.50;4935991;28;20023;-74
2021/04/23 03:03:22;;;;;;;8.10;4.30;;;;;;;21.47;20.74;72992.69;4946490;28;20036;-75
2021/04/23 03:05:51;;;;;;;4.85;3.83;;;;;;;21.49;20.83;72997.28;4931789;29;20390;-77
2021/04/23 03:08:19;;;;;;;6.75;3.92;;;;;;;21.98;21.14;73050.97;4938622;29;20043;-72
2021/04/23 03:11:08;;;;;;;10.95;4.63;;;;;;;22.09;21.60;73069.75;4952012;29;20031;-74
2021/04/23 03:13:36;;;;;;;7.22;5.22;;;;;;;21.93;21.54;73047.75;4935190;29;20120;-73
2021/04/23 03:16:05;;;;;;;7.22;3.55;;;;;;;22.28;21.71;73088.56;4929875;29;20019;-73
2021/04/23 03:18:32;;;;;;;;;;;;;;;22.42;21.54;73102.59;4940001;29;20050;-73
2021/04/23 03:21:01;;;;;;;7.65;3.85;;;;;;;22.42;21.42;73102.00;4920063;29;19926;-72
2021/04/23 03:23:29;;;;;;;6.35;3.78;;;;;;;21.77;21.49;73029.13;4917893;29;20016;-73
2021/04/23 03:25:58;;;;;;;9.02;3.50;;;;;;;22.09;22.26;73069.16;4935317;29;20050;-74
2021/04/23 03:28:26;;;;;;;6.20;4.20;;;;;;;22.22;22.26;73084.75;4933569;29;20525;-74
2021/04/23 03:30:54;;;;;;;6.40;4.45;;;;;;;21.79;22.13;73031.53;4928841;29;20434;-74
2021/04/23 03:33:22;;;;;;;13.27;4.03;;;;;;;21.54;23.06;72999.88;4953499;29;20041;-74
2021/04/23 03:35:52;;;;;;;6.35;3.65;;;;;;;21.31;23.32;72976.28;4926226;29;20397;-73
2021/04/23 03:38:20;;;;;;;7.65;4.05;;;;;;;20.20;23.64;72848.47;4920404;29;20119;-73
2021/04/23 03:40:49;;;;;;;5.50;3.95;;;;;;;21.62;23.77;73014.50;4940924;29;20051;-74
2021/04/23 03:43:16;;;;;;;8.10;5.25;;;;;;;21.59;24.18;73012.09;4936030;29;20084;-72
2021/04/23 03:45:44;;;;;;;11.35;5.35;;;;;;;21.61;23.71;73008.28;4936435;29;20034;-72
2021/04/23 03:48:12;;;;;;;12.45;4.53;;;;;;;21.46;23.26;72993.69;4933983;29;20580;-75
2021/04/23 03:50:40;;;;;;;10.55;4.00;;;;;;;20.77;23.59;72911.06;4932406;29;20047;-79
2021/04/23 03:53:11;;;;;;;10.32;6.15;;;;;;;21.33;23.83;72982.06;4907190;29;20115;-77
2021/04/23 03:55:45;;;;;;;10.07;4.60;;;;;;;20.81;23.85;72918.03;4930862;29;20502;-77
2021/04/23 03:58:13;;;;;;;12.68;4.90;;;;;;;21.05;23.60;72943.47;4936347;29;20380;-77
2021/04/23 04:00:46;;;;;;;9.55;5.30;;;;;;;21.44;23.91;72991.88;4923280;29;20030;-75
2021/04/23 04:03:13;;;;;;;17.23;4.55;;;;;;;21.53;23.77;73004.28;4926602;29;20083;-76
2021/04/23 04:05:41;;;;;;;21.92;6.88;;;;;;;21.32;23.94;72977.47;4931894;29;20503;-75
2021/04/23 04:08:09;;;;;;;11.38;5.43;;;;;;;20.92;23.27;72931.88;4939878;29;20012;-74
2021/04/23 04:10:37;;;;;;;10.38;4.70;;;;;;;21.58;23.39;73010.28;4951124;29;20083;-75
2021/04/23 04:13:04;;;;;;;8.55;5.00;;;;;;;21.54;23.56;72999.88;4943099;28;20035;-73
2021/04/23 04:15:34;;;;;;;12.55;4.45;;;;;;;21.09;23.47;72953.88;4934766;29;20024;-74
2021/04/23 04:18:02;;;;;;;11.50;5.07;;;;;;;21.61;23.70;73011.09;4934539;29;20027;-76
2021/04/23 04:20:32;;;;;;;12.57;4.30;;;;;;;21.40;23.47;72989.88;4929820;29;20036;-75
2021/04/23 04:22:59;;;;;;;11.70;4.20;;;;;;;21.57;23.34;73006.88;4924217;29;20047;-77
2021/04/23 04:25:33;;;;;;;11.05;4.22;;;;;;;21.50;23.44;72998.47;4925464;29;20038;-75
2021/04/23 04:28:00;;;;;;;12.50;5.03;;;;;;;21.74;23.09;73026.13;4934048;29;20553;-75
2021/04/23 04:30:28;;;;;;;13.48;5.05;;;;;;;21.63;23.54;73016.28;4934965;29;20028;-76
2021/04/23 04:32:56;;;;;;;13.68;5.18;;;;;;;21.62;23.48;73015.09;4931480;29;20024;-73
2021/04/23 04:35:25;;;;;;;7.47;3.75;;;;;;;21.41;23.52;72985.50;4935660;29;20024;-74
2021/04/23 04:37:52;;;;;;;9.82;4.65;;;;;;;21.46;23.37;72993.69;4925451;29;20123;-73
2021/04/23 04:40:21;;;;;;;13.80;5.13;;;;;;;20.89;23.19;72925.47;4933517;29;20054;-73
2021/04/23 04:42:48;;;;;;;9.55;4.50;;;;;;;21.38;23.45;72984.69;4934000;29;20039;-74
2021/04/23 04:45:18;;;;;;;17.00;5.85;;;;;;;21.43;24.05;72987.91;4930703;29;20102;-74
2021/04/23 04:47:45;;;;;;;8.80;3.83;;;;;;;21.54;23.07;73005.47;4921352;29;20032;-73
2021/04/23 04:50:44;;;;;;;12.27;5.07;;;;;;;21.77;23.34;73026.31;4931889;29;20394;-74
2021/04/23 04:53:12;;;;;;;8.25;4.55;;;;;;;21.79;23.07;73031.53;4929091;29;20027;-74
2021/04/23 04:55:42;;;;;;;11.80;4.65;;;;;;;22.07;22.87;73063.94;4935322;29;20024;-75
2021/04/23 04:58:11;;;;;;;12.27;4.00;;;;;;;20.95;23.50;72937.66;4940814;29;20011;-75
2021/04/23 05:00:39;;;;;;;8.13;4.35;;;;;;;21.99;23.19;73052.75;4923854;29;20762;-75
2021/04/23 05:03:06;;;;;;;14.50;4.25;;;;;;;21.86;23.49;73037.75;4942251;29;20059;-75
2021/04/23 05:05:34;;;;;;;9.40;5.30;;;;;;;21.35;23.67;72983.88;4933137;29;20027;-74
2021/04/23 05:08:01;;;;;;;8.55;3.88;;;;;;;22.22;23.79;73081.38;4933522;29;20370;-74
2021/04/23 05:10:30;;;;;;;12.80;4.32;;;;;;;21.92;23.33;73047.13;4920985;29;20021;-73
2021/04/23 05:12:57;;;;;;;10.35;4.65;;;;;;;21.87;23.71;73041.16;4915918;29;20036;-74
2021/04/23 05:15:24;;;;;;;6.93;3.53;;;;;;;22.24;22.93;73080.97;4917553;29;20091;-75
2021/04/23 05:17:51;;;;;;;7.80;4.63;;;;;;;21.90;23.48;73044.75;4935122;29;20392;-75
2021/04/23 05:20:19;;;;;;;5.55;3.78;;;;;;;22.12;23.53;73069.97;4931177;29;20083;-74
2021/04/23 05:22:47;;;;;;;8.35;3.58;;;;;;;21.93;23.62;73048.34;4933521;29;20028;-74
2021/04/23 05:25:16;;;;;;;19.08;4.22;;;;;;;22.04;23.28;73057.56;4933002;29;20098;-77
2021/04/23 05:27:44;;;;;;;12.95;4.63;;;;;;;22.10;23.14;73070.38;4933578;29;20082;-74
2021/04/23 05:30:15;;;;;;;6.68;3.67;;;;;;;21.98;23.30;73051.53;4948265;29;20032;-75
2021/04/23 05:32:42;;;;;;;12.38;4.03;;;;;;;21.79;23.10;73034.31;4944222;29;20054;-74
2021/04/23 05:35:11;;;;;;;10.75;4.43;;;;;;;21.24;23.42;72971.28;4947429;29;20079;-75
2021/04/23 05:37:38;;;;;;;10.40;3.80;;;;;;;22.15;23.13;73076.34;4947850;28;20019;-76
2021/04/23 05:40:08;;;;;;;7.32;4.10;;;;;;;21.99;23.13;73054.97;4932519;29;20063;-74
2021/04/23 05:42:35;;;;;;;8.55;4.25;;;;;;;22.19;23.21;73075.56;4927281;28;20123;-74
2021/04/23 05:45:05;;;;;;;6.35;4.32;;;;;;;21.98;23.34;73057.16;4948088;29;20031;-75
2021/04/23 05:47:31;;;;;;;8.68;3.50;;;;;;;22.07;23.77;73064.56;4921236;29;20031;-76
2021/04/23 05:49:58;;;;;;;7.50;4.40;;;;;;;22.08;23.78;73067.94;4941732;29;20039;-75
2021/04/23 05:52:26;;;;;;;15.70;4.13;;;;;;;22.15;24.01;73076.34;4934273;29;20028;-74
2021/04/23 05:54:54;;;;;;;9.07;3.78;;;;;;;22.24;23.62;73083.78;4930537;29;20056;-75
2021/04/23 05:57:21;;;;;;;9.38;5.30;;;;;;;21.79;24.18;73029.31;4931988;29;20038;-74
2021/04/23 05:59:48;;;;;;;10.25;4.00;;;;;;;22.24;23.98;73086.56;4927381;29;20511;-75
2021/04/23 06:02:14;;;;;;;9.95;3.90;;;;;;;22.29;23.96;73087.56;4925504;29;20076;-73
2021/04/23 06:04:41;;;;;;;13.70;3.92;;;;;;;21.80;23.92;73029.94;4945149;29;20945;-75
2021/04/23 06:07:08;;;;;;;10.70;3.60;;;;;;;21.81;23.81;73034.53;4943816;29;20388;-74
2021/04/23 06:09:35;;;;;;;8.80;3.40;;;;;;;21.78;24.09;73028.13;4926885;29;20044;-75
2021/04/23 06:12:02;;;;;;;5.85;2.92;;;;;;;21.11;24.14;72956.28;4923218;29;20038;-75
2021/04/23 06:14:29;;;;;;;12.18;5.10;;;;;;;21.89;24.89;73046.34;4933739;29;20031;-74
2021/04/23 06:16:57;;;;;;;11.35;3.78;;;;;;;21.22;25.04;72962.69;4933571;29;20019;-73
2021/04/23 06:19:24;;;;;;;10.05;5.38;;;;;;;22.03;25.26;73062.53;4915399;29;20023;-75
2021/04/23 06:21:51;;;;;;;16.63;6.05;;;;;;;22.26;24.77;73083.97;4936187;28;20039;-74
2021/04/23 06:24:19;;;;;;;10.70;3.85;;;;;;;21.95;24.65;73050.75;4940771;29;20460;-74
2021/04/23 06:26:46;;;;;;;8.55;3.60;;;;;;;22.17;25.57;73072.56;4952126;28;20114;-74
2021/04/23 06:29:12;;;;;;;7.95;3.97;;;;;;;21.42;24.73;72992.28;4941032;28;20046;-76
2021/04/23 06:31:39;;;;;;;9.50;3.63;;;;;;;22.00;25.05;73056.75;4933777;29;20024;-74
2021/04/23 06:34:06;;;;;;;5.65;2.88;;;;;;;21.83;24.56;73033.53;4934218;29;20398;-76
2021/04/23 06:36:33;;;;;;;5.97;3.47;;;;;;;20.89;24.95;72931.06;4938356;29;20035;-90
2021/04/23 06:39:00;;;;;;;4.32;3.05;;;;;;;21.59;24.65;73008.69;4925240;29;20114;-89
2021/04/23 06:41:27;;;;;;;6.00;3.63;;;;;;;22.21;24.91;73080.78;4921306;29;20051;-90
2021/04/23 06:43:54;;;;;;;7.60;4.25;;;;;;;21.51;24.07;73001.88;4917656;29;20036;-89
2021/04/23 06:46:21;;;;;;;12.52;4.00;;;;;;;22.19;23.81;73078.38;4924815;29;20124;-89
2021/04/23 06:48:49;;;;;;;9.13;4.35;;;;;;;21.98;24.39;73054.34;4927336;29;20416;-90
2021/04/23 06:51:16;;;;;;;12.95;3.95;;;;;;;20.55;24.79;72888.06;4920379;29;20524;-89
2021/04/23 06:53:43;;;;;;;10.38;3.53;;;;;;;21.66;24.26;73016.50;4922696;29;20506;-88
2021/04/23 06:56:09;;;;;;;4.82;2.95;;;;;;;21.62;24.44;73015.09;4919285;29;20079;-88
2021/04/23 06:58:36;;;;;;;5.07;3.72;;;;;;;21.81;24.77;73031.13;4924228;29;20035;-88
2021/04/23 07:01:03;;;;;;;8.93;3.70;;;;;;;21.52;24.58;73000.28;4938478;29;20050;-88
2021/04/23 07:03:30;;;;;;;6.38;3.35;;;;;;;21.68;24.68;73022.31;4939417;29;20075;-87
2021/04/23 07:05:59;;;;;;;7.32;4.18;;;;;;;22.09;24.50;73064.16;4940142;29;20135;-88
2021/04/23 07:08:26;;;;;;;17.73;4.35;;;;;;;22.17;24.38;73073.19;4940192;29;20031;-90
2021/04/23 07:10:53;;;;;;;14.65;4.28;;;;;;;21.34;24.87;72977.09;4929518;29;20086;-88
2021/04/23 07:13:20;;;;;;;12.77;4.05;;;;;;;22.03;24.69;73059.75;4924600;29;20040;-85
2021/04/23 07:15:47;;;;;;;8.35;3.72;;;;;;;20.78;24.96;72915.03;4936009;29;20024;-86
2021/04/23 07:18:14;;;;;;;7.93;3.30;;;;;;;21.60;24.30;73010.50;4933550;29;20079;-88
2021/04/23 07:20:41;;;;;;;10.20;3.00;;;;;;;20.72;24.79;72905.03;4947547;29;20032;-89
2021/04/23 07:23:09;;;;;;;5.25;3.40;;;;;;;20.92;24.26;72931.88;4942763;29;20123;-89
2021/04/23 07:25:36;;;;;;;5.63;2.80;;;;;;;21.77;23.83;73029.13;4926003;29;20035;-90
2021/04/23 07:28:04;;;;;;;12.68;3.75;;;;;;;21.08;24.24;72949.88;4926819;29;20086;-88
2021/04/23 07:30:34;;;;;;;9.90;3.83;;;;;;;21.81;24.21;73036.75;4926801;29;20039;-88
2021/04/23 07:33:04;;;;;;;13.13;4.47;;;;;;;21.25;24.22;72969.69;4935872;29;20035;-87
2021/04/23 07:36:04;;;;;;;10.95;3.92;;;;;;;21.73;24.32;73027.72;4927100;29;20035;-91
2021/04/23 07:38:33;;;;;;;6.50;3.50;;;;;;;20.79;23.97;72916.25;4955093;23;20041;-94
2021/04/23 07:44:30;;;;;;;11.93;3.50;;;;;;;19.94;23.55;72817.84;4960421;28;20104;-90
2021/04/23 07:46:57;;;;;;;14.27;4.00;;;;;;;21.44;24.12;72991.88;4935272;29;20094;-93
2021/04/23 07:49:55;;;;;;;5.03;3.78;;;;;;;21.60;23.41;73013.31;4932375;29;20038;-93
2021/04/23 07:52:38;;;;;;;7.15;3.50;;;;;;;21.52;24.54;72997.50;4956617;28;20031;-85
2021/04/23 07:55:13;;;;;;;6.35;3.33;;;;;;;21.59;23.72;73005.91;4951060;29;20060;-92
2021/04/23 07:57:43;;;;;;;13.73;3.88;;;;;;;21.08;24.17;72947.06;4920566;29;20119;-83
2021/04/23 08:00:12;;;;;;;6.45;3.10;;;;;;;21.00;23.37;72937.47;4932051;29;20047;-83
2021/04/23 08:02:41;;;;;;;12.07;5.15;;;;;;;21.44;23.76;72994.06;4930914;29;20397;-83
2021/04/23 08:05:11;;;;;;;6.82;4.93;;;;;;;21.04;23.45;72945.09;4931920;29;20027;-83
2021/04/23 08:07:38;;;;;;;12.63;4.07;;;;;;;20.88;23.23;72929.25;4936974;29;20102;-83
2021/04/23 08:10:06;;;;;;;12.02;3.70;;;;;;;21.43;23.40;72990.06;4935727;29;20058;-83
2021/04/23 08:12:33;;;;;;;12.25;3.45;;;;;;;21.45;23.10;72993.09;4936089;29;20486;-83
2021/04/23 08:15:00;;;;;;;9.98;3.30;;;;;;;21.35;22.87;72981.09;4936558;29;20060;-84
2021/04/23 08:17:27;;;;;;;12.32;3.63;;;;;;;20.99;23.11;72939.06;4938114;29;20090;-82
2021/04/23 08:19:54;;;;;;;5.90;3.35;;;;;;;20.97;23.42;72934.47;4920441;29;20038;-83
2021/04/23 08:22:21;;;;;;;11.02;3.83;;;;;;;20.30;23.54;72862.03;4931922;29;20050;-83
2021/04/23 08:24:48;;;;;;;8.02;3.97;;;;;;;21.22;22.34;72968.28;4934892;29;20041;-81
2021/04/23 08:27:15;;;;;;;7.68;3.60;;;;;;;20.82;23.43;72919.84;4936158;29;20042;-83
2021/04/23 08:29:45;;;;;;;13.30;3.28;;;;;;;20.44;22.66;72876.03;4934797;29;20031;-83
2021/04/23 08:32:12;;;;;;;8.75;3.03;;;;;;;21.29;22.61;72973.88;4936407;29;20035;-86
2021/04/23 08:34:39;;;;;;;5.80;2.58;;;;;;;20.07;22.63;72833.47;4928796;29;20040;-83
2021/04/23 08:37:09;;;;;;;5.15;3.05;;;;;;;20.82;22.31;72919.84;4932204;29;20174;-83
2021/04/23 08:39:37;;;;;;;5.43;2.50;;;;;;;21.13;22.09;72950.28;4927964;29;20058;-82
2021/04/23 08:42:06;;;;;;;19.02;3.13;;;;;;;20.60;22.62;72894.66;4907565;29;20071;-84
2021/04/23 08:44:33;;;;;;;4.63;3.25;;;;;;;20.73;21.48;72911.84;4933912;29;20328;-82
2021/04/23 08:47:00;;;;;;;8.85;3.08;;;;;;;20.94;22.96;72933.66;4928018;29;20134;-82
2021/04/23 08:49:28;;;;;;;6.28;2.35;;;;;;;20.41;22.22;72875.25;4930419;29;20036;-83
2021/04/23 08:52:00;;;;;;;6.55;2.92;;;;;;;19.74;22.08;72794.47;4916489;29;20494;-83
2021/04/23 08:54:27;;;;;;;5.20;2.50;;;;;;;19.41;22.16;72759.47;4929570;29;20047;-83
2021/04/23 08:56:55;;;;;;;5.00;3.05;;;;;;;20.71;22.11;72909.44;4950181;29;20032;-83
2021/04/23 08:59:22;;;;;;;7.00;3.22;;;;;;;20.31;22.05;72858.25;4933582;29;20023;-83
2021/04/23 09:01:49;;;;;;;7.60;3.08;;;;;;;20.40;22.23;72870.66;4930228;29;20443;-83
2021/04/23 09:04:16;;;;;;;6.57;2.45;;;;;;;20.81;21.58;72915.88;4928155;29;20032;-83
2021/04/23 09:06:43;;;;;;;5.95;2.50;;;;;;;20.12;22.36;72838.25;4926821;29;20027;-83
2021/04/23 09:09:13;;;;;;;3.47;3.00;;;;;;;20.32;21.86;72865.03;4925638;29;20090;-82
2021/04/23 09:11:48;;;;;;;9.15;3.15;;;;;;;20.10;22.07;72834.25;4950349;28;20027;-83
2021/04/23 09:14:20;;;;;;;2.92;2.40;;;;;;;20.64;22.08;72893.25;4917939;29;20042;-83
2021/04/23 09:17:00;;;;;;;5.25;2.60;;;;;;;20.70;21.98;72908.25;4934251;29;20123;-83
2021/04/23 09:19:32;;;;;;;10.73;3.15;;;;;;;20.41;21.76;72874.63;4933740;29;20086;-83
2021/04/23 09:22:01;;;;;;;3.30;3.00;;;;;;;20.63;21.40;72897.66;4932191;29;20027;-82
2021/04/23 09:24:33;;;;;;;2.97;2.70;;;;;;;19.81;22.36;72803.44;4923741;29;20028;-83
2021/04/23 09:27:18;;;;;;;8.25;3.35;;;;;;;20.41;22.21;72875.25;4920360;29;20038;-82
2021/04/23 09:29:51;;;;;;;9.75;3.40;;;;;;;20.49;22.21;72882.06;4932860;28;20039;-85
2021/04/23 09:32:22;;;;;;;9.35;3.17;;;;;;;20.47;22.84;72879.66;4933771;29;20071;-84
2021/04/23 09:34:59;;;;;;;4.80;2.63;;;;;;;18.99;22.57;72708.72;4938547;29;20095;-81
2021/04/23 09:37:48;;;;;;;3.45;2.20;;;;;;;20.70;22.29;72908.25;4921286;29;20035;-86
2021/04/23 09:40:17;;;;;;;11.68;3.10;;;;;;;20.64;22.66;72896.06;4917999;29;20513;-82
2021/04/23 09:42:55;;;;;;;3.35;2.45;;;;;;;20.56;22.35;72892.63;4936450;29;20035;-85
2021/04/23 09:45:52;;;;;;;6.15;2.08;;;;;;;20.54;22.69;72887.44;4946658;29;20510;-84
2021/04/23 09:48:23;;;;;;;7.53;2.85;;;;;;;20.42;22.32;72873.03;4928312;29;20043;-84
2021/04/23 09:50:52;;;;;;;5.82;2.47;;;;;;;19.58;22.87;72775.88;4904586;29;20020;-85
2021/04/23 09:53:32;;;;;;;11.18;8.25;;;;;;;19.81;23.61;72805.66;4934017;29;20043;-83
2021/04/23 09:55:59;;;;;;;14.02;8.25;;;;;;;19.69;22.80;72792.44;4934657;29;20024;-85
2021/04/23 09:58:26;;;;;;;7.38;3.78;;;;;;;18.99;22.55;72711.53;4933366;29;20035;-84
2021/04/23 10:00:58;;;;;;;9.00;4.88;;;;;;;19.89;23.19;72811.84;4917896;29;20028;-86
2021/04/23 10:03:33;;;;;;;7.88;2.92;;;;;;;19.16;22.71;72727.94;4917910;29;20024;-85
2021/04/23 10:06:23;;;;;;;7.63;3.35;;;;;;;20.13;22.88;72839.47;4938006;29;20028;-84
2021/04/23 10:08:50;;;;;;;7.30;3.33;;;;;;;19.36;24.36;72750.69;4933181;29;20035;-85
2021/04/23 10:11:17;;;;;;;7.13;3.28;;;;;;;19.28;24.20;72744.50;4937155;29;20035;-85
2021/04/23 10:13:44;;;;;;;9.80;3.80;;;;;;;19.29;25.75;72740.13;4933736;29;20039;-84
2021/04/23 10:16:10;;;;;;;8.88;4.57;;;;;;;19.23;25.68;72736.31;4931520;29;20027;-84
2021/04/23 10:18:37;;;;;;;7.53;4.20;;;;;;;20.10;25.69;72839.84;4929324;29;20032;-83
2021/04/23 10:21:05;;;;;;;10.82;4.03;;;;;;;19.70;27.19;72787.47;4934090;29;20778;-84
2021/04/23 10:23:32;;;;;;;12.38;5.15;;;;;;;19.76;27.06;72800.25;4916670;29;20454;-84
2021/04/23 10:26:00;;;;;;;9.18;3.63;;;;;;;19.24;27.58;72736.91;4935131;29;20030;-83
2021/04/23 10:28:27;;;;;;;10.25;3.72;;;;;;;19.87;27.64;72812.25;4916939;29;20036;-85
2021/04/23 10:30:56;;;;;;;4.55;4.13;;;;;;;20.08;26.51;72834.66;4928998;29;20050;-87
2021/04/23 10:33:26;;;;;;;12.50;4.40;;;;;;;20.20;26.39;72850.66;4951198;29;20040;-92
2021/04/23 10:35:57;;;;;;;16.98;5.60;;;;;;;20.17;26.11;72847.66;4939253;28;20039;-93
2021/04/23 10:38:38;;;;;;;9.95;6.40;;;;;;;19.85;27.21;72807.06;4925496;29;20065;-90
2021/04/23 10:41:08;;;;;;;16.45;6.45;;;;;;;20.22;27.18;72850.25;4899825;29;20036;-90
2021/04/23 10:43:36;;;;;;;18.85;8.05;;;;;;;20.24;27.32;72856.06;4902161;29;20027;-89
2021/04/23 10:46:12;;;;;;;13.32;7.68;;;;;;;20.26;27.36;72854.47;4917072;29;20085;-89
2021/04/23 10:48:49;;;;;;;21.10;10.70;;;;;;;20.28;27.48;72860.25;4902584;29;20055;-89
2021/04/23 10:51:19;;;;;;;17.48;11.93;;;;;;;20.27;27.70;72856.25;4917846;29;20036;-88
2021/04/23 10:53:48;;;;;;;21.48;12.18;;;;;;;19.45;28.47;72760.88;4901906;29;20044;-89
2021/04/23 10:56:34;;;;;;;14.02;8.50;;;;;;;19.91;28.35;72817.06;4917584;29;20044;-90
2021/04/23 10:59:03;;;;;;;15.13;9.90;;;;;;;19.81;28.68;72803.44;4914348;29;20036;-90
2021/04/23 11:01:34;;;;;;;18.92;10.07;;;;;;;19.37;29.12;72754.69;4914104;29;20128;-90
2021/04/23 11:04:09;;;;;;;16.10;9.23;;;;;;;19.45;29.66;72764.28;4897290;29;20063;-90
2021/04/23 11:06:53;;;;;;;15.55;9.60;;;;;;;19.45;29.97;72763.69;4902510;29;20479;-89
2021/04/23 11:09:22;;;;;;;15.88;8.98;;;;;;;18.89;30.70;72699.53;4915285;29;20029;-91
2021/04/23 11:12:08;;;;;;;13.70;7.70;;;;;;;20.03;30.64;72831.44;4900812;29;20044;-90
2021/04/23 11:14:39;;;;;;;16.92;9.05;;;;;;;20.03;30.37;72830.88;4918981;29;20048;-92
2021/04/23 11:17:18;;;;;;;12.60;7.00;;;;;;;19.98;30.49;72822.06;4913963;29;20039;-91
2021/04/23 11:19:49;;;;;;;12.75;8.52;;;;;;;19.19;30.78;72734.31;4902240;29;20096;-92
2021/04/23 11:22:19;;;;;;;11.93;6.55;;;;;;;19.90;31.41;72813.06;4919607;29;20033;-91
2021/04/23 11:25:01;;;;;;;11.93;7.60;;;;;;;19.89;31.81;72814.63;4921621;29;20166;-91
2021/04/23 11:28:02;;;;;;;18.83;8.70;;;;;;;19.80;32.29;72799.47;4921834;29;20033;-89
2021/04/23 11:30:50;;;;;;;10.15;7.35;;;;;;;19.33;32.32;72749.88;4920580;29;20044;-91
2021/04/23 11:33:53;;;;;;;10.02;7.47;;;;;;;18.36;32.57;72635.63;4920821;29;20126;-89
2021/04/23 11:36:26;;;;;;;12.65;7.75;;;;;;;19.80;32.59;72802.25;5016072;23;20049;-91
2021/04/23 11:38:58;;;;;;;20.92;8.68;;;;;;;19.71;32.69;72788.69;4905344;29;20048;-89
2021/04/23 11:41:25;;;;;;;15.80;8.43;;;;;;;19.25;33.49;72740.91;4914239;29;20854;-92
2021/04/23 11:43:52;;;;;;;24.70;8.43;;;;;;;19.47;33.37;72763.28;4904185;29;20044;-87
2021/04/23 11:46:19;;;;;;;17.50;7.88;;;;;;;18.36;33.42;72638.41;4901846;29;20136;-89